Historyczne dane pomiarowe

Dodano dane terminowe – wersja testowa.

Dane z okresu 1951-2019

Wersja bazy: 1.34 [2019-03-16, lista zmian], aktualizacja planowana na 2019-04-15

Dane meteo z obszaru Polski uzyskane na podstawie danych udostępnionych przez Instytut Meteorologii i Gospodarki Wodnej – Państwowy Instytut Badawczy.

 

Wybierz Datę:    

       

TemperaturaWilgotnośćWiatrCiśnienieOpadyŚniegCzas trwania zjawisk
 Stacja t tx tn tng RH VA  wxwx mslp ppp RRR   cm mm wxwxwxwxwxwxwx
1962-02-25 -9.5 -6.9-19.1-23.8 84.8- 6.7 1.0---- 0.0-- 37---------
1962-02-26 -7.5 -2.1-12.7 -8.4 88.3- 5.3 1.7---- 0.0-- 33---------
1962-02-27 -1.9 2.4 -9.0-10.2 83.5- 6.0 3.3---- 0.0-- 30---------
1962-02-28 -1.8 1.5 -5.4 -5.8 91.0- 8.0 1.7---- 0.3-- 27---------
1962-03-01 -1.6 1.8 -5.5 -5.6 92.3- 8.0 2.0---- 0.1-- 25---------
1962-03-02 -1.6 0.4 -3.6 -4.0 90.3- 8.0 2.3---- 0.8-- 25---------
1962-03-03 0.4 3.6 -4.1 -4.5 73.3- 8.0 2.0---- 0.0-- 24---------
1962-03-04 3.0 7.8 -2.3 -6.5 83.0- 7.3 2.7---- 0.0-- 23---------
1962-03-05 6.9 12.7 0.2 -1.6 82.3- 7.0 3.0---- 0.0-- 19---------
1962-03-06 1.6 9.2 -1.8 0.3 83.3- 8.0 3.7---- 3.8-- 8---------
1962-03-07 -4.0 -0.8 -5.1 -2.3 81.8- 7.7 4.0---- 2.3-- 14---------
1962-03-08 -8.2 -2.1-13.1 -8.5 82.8- 5.3 3.3---- 0.0-- 17---------
1962-03-09 -6.3 1.7-16.5-21.0 70.0- 1.3 2.0---- 0.0-- 15---------
1962-03-10 1.4 4.5 -6.0-11.2 62.5- 7.7 5.0---- 0.0------------
1962-03-11 2.2 4.6 -0.5 -5.0 84.0- 7.3 3.0---- 0.7------------
1962-03-12 1.3 4.1 0.0 -0.2 95.5- 8.0 1.7---- 8.4------------
1962-03-13 -4.4 0.6 -5.5 -4.1 72.0- 7.3 13.0---- 1.7-- 5---------
1962-03-14 -7.2 -3.1 -9.4 -8.0 76.5- 6.3 4.3---- 0.3-- 5---------
1962-03-15 -7.5 -5.7 -9.6-10.0 82.5- 8.0 4.0---- 7.1-- 6---------
1962-03-16 -7.9 -6.5 -9.2 -8.2 83.8- 8.0 5.7---- 13.6-- 27---------
1962-03-17 -7.4 -6.4 -9.7 -8.9 84.8- 8.0 6.0---- 6.7-- 60---------
1962-03-18 -6.2 -2.4 -9.3 -7.1 76.5- 5.7 5.7---- 0.9-- 70---------
1962-03-19 -7.8 -0.3-13.1-16.3 81.3- 5.3 1.7---- 0.0-- 48---------
1962-03-20 -8.1 1.1-18.7-22.1 77.5- 4.3 1.3---- 0.0-- 42---------
1962-03-21 -6.8 1.4-18.1-22.6 77.3- 3.3 2.7---- 0.1-- 38---------
1962-03-22 -4.2 -2.0 -7.9 -9.9 87.5- 8.0 2.3---- 2.9-- 35---------
1962-03-23 -3.4 -1.5 -6.2 -5.7 91.3- 8.0 2.3---- 4.7-- 38---------
1962-03-24 -1.9 0.5 -3.7 -3.7 83.5- 8.0 2.3---- 0.0-- 44---------
1962-03-25 -5.5 -0.7-12.4-14.3 81.0- 7.3 2.7---- 0.0-- 35---------
1962-03-26-10.5 -0.2-20.2-22.7 73.3- 3.3 2.3---- 0.0-- 35---------
169.8 ms

 

Źródłem pochodzenia danych jest Instytut Meteorologii i Gospodarki Wodnej – Państwowy Instytut Badawczy. Dane Instytutu Meteorologii i Gospodarki Wodnej – Państwowego Instytutu Badawczego zostały przetworzone.

Dane źródłowe można odnaleźć na stronie https://dane.imgw.pl